AirNav   ProFlight Series 2 Aviation Headset
 
 1081 users online  

80FL Northwest Florida Community Hospital Heliport
Chipley, Florida, USA

GOING TO CHIPLEY?


FAA INFORMATION EFFECTIVE 16 JULY 2020

Location

FAA Identifier: 80FL
Lat/Long: 30-45-57.4700N 085-32-37.5400W
30-45.957833N 085-32.625667W
30.7659639,-85.5437611
(estimated)
Elevation: 130 ft. / 40 m (estimated)
Variation: 00E (1985)
Time zone: UTC -5 (UTC -6 during Standard Time)
Zip code: 32428

Heliport Operations

Heliport use: Private use, MEDICAL.
Activation date: 12/1982
Control tower: no
ARTCC: JACKSONVILLE CENTER
FSS: GAINESVILLE FLIGHT SERVICE STATION
Attendance: CONTINUOUS
Wind indicator: yes
Segmented circle: yes

Heliport Communications

WX AWOS-3PT at 1J0 (6 nm NW): 119.825 (850-547-1431)
WX ASOS at MAI (19 nm E): 133.525 (850-482-6082)

Nearby radio navigation aids

VOR radial/distance  VOR name  Freq  Var
MAIr267/21.6MARIANNA VORTAC114.0000E
OZRr166/31.6CAIRNS VOR/DME111.2003W
RRSr189/31.7WIREGRASS VORTAC111.6002E
EDNr153/(36.8)ENTERPRISE VOR116.6003W
HEYr174/(36.9)HANCHEY VOR110.6003W

 
NDB name  Hdg/Dist  Freq  Var  ID
SOYYA251/17.632902WSMY ... -- -.--
LYNNE029/29.127804WPFN .--. ..-. -.
HANCHEY174/37.022103WHYE .... -.-- .
LOWE167/37.226903WLOR .-.. --- .-.

Heliport Services

Runway Information

Helipad H1

Dimensions: 60 x 40 ft. / 18 x 12 m
Surface: asphalt, in fair condition
Latitude: 30-45.957833N
Longitude: 085-32.625667W
Elevation: 130.0 ft.
Traffic pattern: leftleft
Markings: none, in fair condition

Heliport Ownership and Management from official FAA records

Ownership: Publicly-owned
Owner: WASHINGTON COUNTY COMMISSIONERS
PO BOX 889
CHIPLEY, FL 32428
Phone 904-638-1610
Manager: MICHAEL A. KOZAR, CEO
1360 BRICKYARD ROAD
CHIPLEY, FL 32428
Phone 850-415-8103

Additional Remarks

FOR CD CTC CAIRNS APCH AT 334-255-8402 OR 334-255-8460, WHEN APCH CLSD CTC JACKSONVILLE ARTCC AT 904-845-1592.

Instrument Procedures

There are no published instrument procedures at 80FL.

Some nearby airports with instrument procedures:

1J0 - Tri-County Airport (6 nm NW)
KMAI - Marianna Municipal Airport (19 nm E)
33J - Geneva Municipal Airport (24 nm NW)
KECP - Northwest Florida Beaches International Airport (28 nm SW)
54J - DeFuniak Springs Airport (32 nm W)
 
Loc | Ops | Rwys | IFR | FBO | Links
Com | Nav | Svcs | Stats | Notes

Continental Services
AirBoss

 
Area around 80FL (Northwest Florida Community Hospital Heliport)
 
Road maps at: MapQuest Bing Google
 
Aerial photo
No photo
 
Sectional chart

 
Airport distance calculator
Flying to Northwest Florida Community Hospital Heliport? Find the distance to fly.

From to 80FL

Sunrise and sunset
Times for 12-Aug-2020
 Local
(UTC-5)
 Zulu
(UTC)
Morning civil twilight05:4310:43
Sunrise06:0811:08
Sunset19:2600:26
Evening civil twilight19:5100:51

Current date and time
Zulu (UTC)  13-Aug-2020 02:30:45
Local (UTC-5)  12-Aug-2020 21:30:45
 
METAR
K1J0 
6nm NW 
122358Z AUTO 21005KT 10SM CLR 30/23 A2997 RMK AO2 SLP107 T03000233 10339 20300 53008
KMAI 
19nm E 
130153Z AUTO 21007KT 10SM CLR 28/23 A2999 RMK AO2 SLP152 T02780228 $
TAF
KECP 
28nm SW 
121730Z 1218/1318 VRB04KT P6SM VCTS SCT025CB BKN045 FM122300 VRB03KT P6SM SCT050
KOZR 
32nm N 
130000Z 1300/1406 25005KT 9999 FEW050 SCT180 QNH2995INS TEMPO 1300/1302 VRB15G25KT 6000 -TSRA BKN050CB BECMG 1317/1318 18006KT 9000 -SHRA VCTS BKN045CB QNH2992INS TEMPO 1319/1324 VRB15G25KT 6000 -TSRA BKN040CB BECMG 1401/1402 21006KT 9999 NSW SCT040 QNH2996INS TX34/1321Z TN22/1311Z
KDHN 
33nm N 
121730Z 1218/1318 20004KT P6SM FEW040 FM122100 24006KT P6SM VCTS SCT040CB FM130000 22004KT P6SM SCT050
NOTAMs
Click for the latest NOTAMs
NOTAMs are issued by the DoD/FAA and will open in a separate window not controlled by AirNav.

 

 
 

Would you like to see your business listed on this page?

 If your business provides an interesting product or service to pilots, flight crews, aircraft, or users of the Northwest Florida Community Hospital Heliport, you should consider listing it here.  To start the listing process, click on the button below
 
Add a business
 

Other Pages about Northwest Florida Community Hospital Heliport

Update a link
 
Copyright © AirNav, LLC. All rights reserved. Privacy Policy  Contact